sensor_id;sensor_type;location;lat;lon;timestamp;temperature;humidity
23329;DHT22;11836;51.050;3.716;2023-03-01T00:01:25;14.00;91.30
23329;DHT22;11836;51.050;3.716;2023-03-01T00:03:52;14.00;91.50
23329;DHT22;11836;51.050;3.716;2023-03-01T00:06:18;14.00;91.60
23329;DHT22;11836;51.050;3.716;2023-03-01T00:08:44;14.00;91.70
23329;DHT22;11836;51.050;3.716;2023-03-01T00:11:21;13.90;91.80
23329;DHT22;11836;51.050;3.716;2023-03-01T00:13:48;13.90;91.70
23329;DHT22;11836;51.050;3.716;2023-03-01T00:16:26;13.80;91.60
23329;DHT22;11836;51.050;3.716;2023-03-01T00:18:54;13.90;91.90
23329;DHT22;11836;51.050;3.716;2023-03-01T00:21:21;13.90;91.90
23329;DHT22;11836;51.050;3.716;2023-03-01T00:23:48;13.80;91.70
23329;DHT22;11836;51.050;3.716;2023-03-01T00:26:15;13.80;91.90
23329;DHT22;11836;51.050;3.716;2023-03-01T00:28:42;13.80;91.70
23329;DHT22;11836;51.050;3.716;2023-03-01T00:31:10;13.80;91.90
23329;DHT22;11836;51.050;3.716;2023-03-01T00:33:36;13.80;92.00
23329;DHT22;11836;51.050;3.716;2023-03-01T00:36:03;13.70;92.00
23329;DHT22;11836;51.050;3.716;2023-03-01T00:38:29;13.70;92.00
23329;DHT22;11836;51.050;3.716;2023-03-01T00:40:55;13.70;91.80
23329;DHT22;11836;51.050;3.716;2023-03-01T00:43:21;13.70;92.10
23329;DHT22;11836;51.050;3.716;2023-03-01T00:45:46;13.70;92.00
23329;DHT22;11836;51.050;3.716;2023-03-01T00:48:12;13.60;92.10
23329;DHT22;11836;51.050;3.716;2023-03-01T00:50:38;13.60;92.20
23329;DHT22;11836;51.050;3.716;2023-03-01T00:53:06;13.60;92.50
23329;DHT22;11836;51.050;3.716;2023-03-01T00:55:33;13.60;92.60
23329;DHT22;11836;51.050;3.716;2023-03-01T00:57:58;13.60;92.60
23329;DHT22;11836;51.050;3.716;2023-03-01T01:00:25;13.60;92.70
23329;DHT22;11836;51.050;3.716;2023-03-01T01:02:53;13.70;92.80
23329;DHT22;11836;51.050;3.716;2023-03-01T01:05:18;13.60;92.90
23329;DHT22;11836;51.050;3.716;2023-03-01T01:07:47;13.60;92.90
23329;DHT22;11836;51.050;3.716;2023-03-01T01:10:13;13.60;92.90
23329;DHT22;11836;51.050;3.716;2023-03-01T01:12:45;13.60;92.90
23329;DHT22;11836;51.050;3.716;2023-03-01T01:15:11;13.60;92.90
23329;DHT22;11836;51.050;3.716;2023-03-01T01:17:40;13.60;92.80
23329;DHT22;11836;51.050;3.716;2023-03-01T01:20:06;13.60;92.80
23329;DHT22;11836;51.050;3.716;2023-03-01T01:22:32;13.60;92.80
23329;DHT22;11836;51.050;3.716;2023-03-01T01:24:58;13.60;92.70
23329;DHT22;11836;51.050;3.716;2023-03-01T01:27:24;13.60;92.70
23329;DHT22;11836;51.050;3.716;2023-03-01T01:29:49;13.50;92.80
23329;DHT22;11836;51.050;3.716;2023-03-01T01:32:15;13.50;92.90
23329;DHT22;11836;51.050;3.716;2023-03-01T01:34:41;13.50;92.90
23329;DHT22;11836;51.050;3.716;2023-03-01T01:37:06;13.50;92.90
23329;DHT22;11836;51.050;3.716;2023-03-01T01:39:36;13.50;92.90
23329;DHT22;11836;51.050;3.716;2023-03-01T01:42:02;13.50;92.70
23329;DHT22;11836;51.050;3.716;2023-03-01T01:44:29;13.50;92.90
23329;DHT22;11836;51.050;3.716;2023-03-01T01:47:07;13.50;92.90
23329;DHT22;11836;51.050;3.716;2023-03-01T01:52:26;13.50;92.90
23329;DHT22;11836;51.050;3.716;2023-03-01T01:55:15;13.50;92.80
23329;DHT22;11836;51.050;3.716;2023-03-01T01:57:45;13.40;92.70
23329;DHT22;11836;51.050;3.716;2023-03-01T02:00:16;13.40;92.40
23329;DHT22;11836;51.050;3.716;2023-03-01T02:02:43;13.30;92.20
23329;DHT22;11836;51.050;3.716;2023-03-01T02:05:20;13.30;92.40
23329;DHT22;11836;51.050;3.716;2023-03-01T02:07:48;13.30;92.50
23329;DHT22;11836;51.050;3.716;2023-03-01T02:10:15;13.30;92.50
23329;DHT22;11836;51.050;3.716;2023-03-01T02:12:41;13.30;92.70
23329;DHT22;11836;51.050;3.716;2023-03-01T02:15:07;13.20;92.20
23329;DHT22;11836;51.050;3.716;2023-03-01T02:17:33;13.20;92.20
23329;DHT22;11836;51.050;3.716;2023-03-01T02:20:26;13.20;92.40
23329;DHT22;11836;51.050;3.716;2023-03-01T02:22:55;13.30;92.60
23329;DHT22;11836;51.050;3.716;2023-03-01T02:25:36;13.10;92.50
23329;DHT22;11836;51.050;3.716;2023-03-01T02:30:42;13.10;92.50
23329;DHT22;11836;51.050;3.716;2023-03-01T02:33:29;13.10;92.60
23329;DHT22;11836;51.050;3.716;2023-03-01T02:36:04;13.10;92.50
23329;DHT22;11836;51.050;3.716;2023-03-01T02:38:31;13.00;92.30
23329;DHT22;11836;51.050;3.716;2023-03-01T02:40:57;13.00;92.40
23329;DHT22;11836;51.050;3.716;2023-03-01T02:43:29;13.00;92.60
23329;DHT22;11836;51.050;3.716;2023-03-01T02:45:59;13.00;92.70
23329;DHT22;11836;51.050;3.716;2023-03-01T02:48:27;13.00;92.70
23329;DHT22;11836;51.050;3.716;2023-03-01T02:51:09;13.00;92.80
23329;DHT22;11836;51.050;3.716;2023-03-01T02:53:41;13.00;92.90
23329;DHT22;11836;51.050;3.716;2023-03-01T02:56:14;13.00;93.10
23329;DHT22;11836;51.050;3.716;2023-03-01T02:58:43;13.00;93.30
23329;DHT22;11836;51.050;3.716;2023-03-01T03:01:20;13.00;93.00
23329;DHT22;11836;51.050;3.716;2023-03-01T03:03:46;13.00;93.20
23329;DHT22;11836;51.050;3.716;2023-03-01T03:06:11;13.00;93.30
23329;DHT22;11836;51.050;3.716;2023-03-01T03:08:37;13.00;93.20
23329;DHT22;11836;51.050;3.716;2023-03-01T03:11:03;13.00;93.30
23329;DHT22;11836;51.050;3.716;2023-03-01T03:13:31;12.90;93.20
23329;DHT22;11836;51.050;3.716;2023-03-01T03:15:57;13.10;93.40
23329;DHT22;11836;51.050;3.716;2023-03-01T03:18:24;13.00;93.30
23329;DHT22;11836;51.050;3.716;2023-03-01T03:20:52;13.10;93.30
23329;DHT22;11836;51.050;3.716;2023-03-01T03:23:20;13.10;93.40
23329;DHT22;11836;51.050;3.716;2023-03-01T03:25:49;13.00;93.40
23329;DHT22;11836;51.050;3.716;2023-03-01T03:28:17;13.10;93.40
23329;DHT22;11836;51.050;3.716;2023-03-01T03:30:44;13.10;93.40
23329;DHT22;11836;51.050;3.716;2023-03-01T03:33:11;13.00;93.20
23329;DHT22;11836;51.050;3.716;2023-03-01T03:35:47;13.10;93.10
23329;DHT22;11836;51.050;3.716;2023-03-01T03:38:14;13.10;93.10
23329;DHT22;11836;51.050;3.716;2023-03-01T03:40:45;13.10;93.20
23329;DHT22;11836;51.050;3.716;2023-03-01T03:43:22;13.10;93.20
23329;DHT22;11836;51.050;3.716;2023-03-01T03:45:49;13.10;93.20
23329;DHT22;11836;51.050;3.716;2023-03-01T03:48:16;13.10;92.70
23329;DHT22;11836;51.050;3.716;2023-03-01T03:50:48;13.00;92.80
23329;DHT22;11836;51.050;3.716;2023-03-01T03:53:14;13.10;92.90
23329;DHT22;11836;51.050;3.716;2023-03-01T03:55:40;13.00;93.00
23329;DHT22;11836;51.050;3.716;2023-03-01T03:58:07;13.00;93.10
23329;DHT22;11836;51.050;3.716;2023-03-01T04:00:41;13.10;92.90
23329;DHT22;11836;51.050;3.716;2023-03-01T04:03:08;13.10;92.80
23329;DHT22;11836;51.050;3.716;2023-03-01T04:05:36;13.00;92.70
23329;DHT22;11836;51.050;3.716;2023-03-01T04:08:02;13.00;92.80
23329;DHT22;11836;51.050;3.716;2023-03-01T04:10:34;13.00;92.90
23329;DHT22;11836;51.050;3.716;2023-03-01T04:13:00;13.00;92.70
23329;DHT22;11836;51.050;3.716;2023-03-01T04:15:28;13.00;92.60
23329;DHT22;11836;51.050;3.716;2023-03-01T04:17:55;13.00;92.70
23329;DHT22;11836;51.050;3.716;2023-03-01T04:20:24;12.90;92.80
23329;DHT22;11836;51.050;3.716;2023-03-01T04:23:02;12.90;92.80
23329;DHT22;11836;51.050;3.716;2023-03-01T04:25:50;12.90;92.60
23329;DHT22;11836;51.050;3.716;2023-03-01T04:30:53;12.90;92.60
23329;DHT22;11836;51.050;3.716;2023-03-01T04:33:22;12.90;92.70
23329;DHT22;11836;51.050;3.716;2023-03-01T04:35:49;12.80;92.60
23329;DHT22;11836;51.050;3.716;2023-03-01T04:38:19;12.80;92.90
23329;DHT22;11836;51.050;3.716;2023-03-01T04:40:46;12.80;92.50
23329;DHT22;11836;51.050;3.716;2023-03-01T04:43:15;12.80;92.70
23329;DHT22;11836;51.050;3.716;2023-03-01T04:45:41;12.80;92.90
23329;DHT22;11836;51.050;3.716;2023-03-01T04:48:06;12.80;93.00
23329;DHT22;11836;51.050;3.716;2023-03-01T04:50:32;12.80;92.50
23329;DHT22;11836;51.050;3.716;2023-03-01T04:52:58;12.80;92.90
23329;DHT22;11836;51.050;3.716;2023-03-01T04:55:27;12.80;93.00
23329;DHT22;11836;51.050;3.716;2023-03-01T04:57:54;12.80;93.00
23329;DHT22;11836;51.050;3.716;2023-03-01T05:00:21;12.80;93.00
23329;DHT22;11836;51.050;3.716;2023-03-01T05:02:48;12.80;92.90
23329;DHT22;11836;51.050;3.716;2023-03-01T05:05:20;12.80;93.00
23329;DHT22;11836;51.050;3.716;2023-03-01T05:07:46;12.80;93.10
23329;DHT22;11836;51.050;3.716;2023-03-01T05:10:12;12.80;93.00
23329;DHT22;11836;51.050;3.716;2023-03-01T05:12:38;12.80;92.50
23329;DHT22;11836;51.050;3.716;2023-03-01T05:15:04;12.80;92.90
23329;DHT22;11836;51.050;3.716;2023-03-01T05:17:33;12.80;93.10
23329;DHT22;11836;51.050;3.716;2023-03-01T05:19:59;12.80;93.00
23329;DHT22;11836;51.050;3.716;2023-03-01T05:22:25;12.80;93.00
23329;DHT22;11836;51.050;3.716;2023-03-01T05:24:55;12.80;92.70
23329;DHT22;11836;51.050;3.716;2023-03-01T05:27:21;12.80;92.80
23329;DHT22;11836;51.050;3.716;2023-03-01T05:29:47;12.80;92.70
23329;DHT22;11836;51.050;3.716;2023-03-01T05:32:13;12.80;92.90
23329;DHT22;11836;51.050;3.716;2023-03-01T05:34:43;12.80;92.50
23329;DHT22;11836;51.050;3.716;2023-03-01T05:37:12;12.80;92.50
23329;DHT22;11836;51.050;3.716;2023-03-01T05:39:39;12.70;92.50
23329;DHT22;11836;51.050;3.716;2023-03-01T05:42:05;12.70;92.60
23329;DHT22;11836;51.050;3.716;2023-03-01T05:44:32;12.70;92.80
23329;DHT22;11836;51.050;3.716;2023-03-01T05:46:57;12.70;92.90
23329;DHT22;11836;51.050;3.716;2023-03-01T05:49:23;12.70;92.90
23329;DHT22;11836;51.050;3.716;2023-03-01T05:51:51;12.70;92.70
23329;DHT22;11836;51.050;3.716;2023-03-01T05:54:19;12.70;92.50
23329;DHT22;11836;51.050;3.716;2023-03-01T05:56:45;12.70;92.60
23329;DHT22;11836;51.050;3.716;2023-03-01T05:59:12;12.70;92.60
23329;DHT22;11836;51.050;3.716;2023-03-01T06:01:39;12.60;92.40
23329;DHT22;11836;51.050;3.716;2023-03-01T06:04:05;12.60;92.40
23329;DHT22;11836;51.050;3.716;2023-03-01T06:06:35;13.30;92.70
23329;DHT22;11836;51.050;3.716;2023-03-01T06:09:03;12.60;92.40
23329;DHT22;11836;51.050;3.716;2023-03-01T06:11:29;12.50;92.50
23329;DHT22;11836;51.050;3.716;2023-03-01T06:13:55;12.60;92.60
23329;DHT22;11836;51.050;3.716;2023-03-01T06:16:21;12.60;92.70
23329;DHT22;11836;51.050;3.716;2023-03-01T06:18:46;12.50;92.70
23329;DHT22;11836;51.050;3.716;2023-03-01T06:21:14;12.50;92.70
23329;DHT22;11836;51.050;3.716;2023-03-01T06:23:40;12.50;92.70
23329;DHT22;11836;51.050;3.716;2023-03-01T06:26:07;12.50;92.70
23329;DHT22;11836;51.050;3.716;2023-03-01T06:28:33;12.50;92.90
23329;DHT22;11836;51.050;3.716;2023-03-01T06:30:59;12.50;92.90
23329;DHT22;11836;51.050;3.716;2023-03-01T06:33:24;12.60;93.00
23329;DHT22;11836;51.050;3.716;2023-03-01T06:35:51;12.50;93.10
23329;DHT22;11836;51.050;3.716;2023-03-01T06:38:19;12.60;92.70
23329;DHT22;11836;51.050;3.716;2023-03-01T06:40:50;12.50;92.80
23329;DHT22;11836;51.050;3.716;2023-03-01T06:43:16;12.60;92.60
23329;DHT22;11836;51.050;3.716;2023-03-01T06:45:42;12.50;92.40
23329;DHT22;11836;51.050;3.716;2023-03-01T06:48:08;12.60;92.50
23329;DHT22;11836;51.050;3.716;2023-03-01T06:50:34;12.60;92.70
23329;DHT22;11836;51.050;3.716;2023-03-01T06:53:01;12.60;92.40
23329;DHT22;11836;51.050;3.716;2023-03-01T06:55:27;12.50;92.60
23329;DHT22;11836;51.050;3.716;2023-03-01T06:57:57;12.60;92.70
23329;DHT22;11836;51.050;3.716;2023-03-01T07:00:23;12.60;92.80
23329;DHT22;11836;51.050;3.716;2023-03-01T07:02:49;12.60;92.90
23329;DHT22;11836;51.050;3.716;2023-03-01T07:05:15;12.60;92.90
23329;DHT22;11836;51.050;3.716;2023-03-01T07:07:41;12.60;92.80
23329;DHT22;11836;51.050;3.716;2023-03-01T07:10:07;12.60;92.60
23329;DHT22;11836;51.050;3.716;2023-03-01T07:12:33;12.70;92.60
23329;DHT22;11836;51.050;3.716;2023-03-01T07:14:58;12.70;92.50
23329;DHT22;11836;51.050;3.716;2023-03-01T07:17:24;12.70;92.70
23329;DHT22;11836;51.050;3.716;2023-03-01T07:19:50;12.60;92.40
23329;DHT22;11836;51.050;3.716;2023-03-01T07:22:15;12.70;92.50
23329;DHT22;11836;51.050;3.716;2023-03-01T07:24:42;12.70;92.70
23329;DHT22;11836;51.050;3.716;2023-03-01T07:27:07;12.70;92.70
23329;DHT22;11836;51.050;3.716;2023-03-01T07:29:34;12.70;92.30
23329;DHT22;11836;51.050;3.716;2023-03-01T07:32:02;12.70;92.60
23329;DHT22;11836;51.050;3.716;2023-03-01T07:34:28;12.70;92.70
23329;DHT22;11836;51.050;3.716;2023-03-01T07:36:53;12.80;92.40
23329;DHT22;11836;51.050;3.716;2023-03-01T07:39:19;12.70;92.30
23329;DHT22;11836;51.050;3.716;2023-03-01T07:41:45;12.80;92.20
23329;DHT22;11836;51.050;3.716;2023-03-01T07:44:11;12.80;91.70
23329;DHT22;11836;51.050;3.716;2023-03-01T07:46:36;12.80;91.10
23329;DHT22;11836;51.050;3.716;2023-03-01T07:49:02;12.80;91.10
23329;DHT22;11836;51.050;3.716;2023-03-01T07:51:28;12.90;90.90
23329;DHT22;11836;51.050;3.716;2023-03-01T07:53:54;13.10;91.10
23329;DHT22;11836;51.050;3.716;2023-03-01T07:56:19;13.10;90.70
23329;DHT22;11836;51.050;3.716;2023-03-01T07:58:49;13.20;90.20
23329;DHT22;11836;51.050;3.716;2023-03-01T08:01:21;13.40;90.00
23329;DHT22;11836;51.050;3.716;2023-03-01T08:03:47;13.50;90.00
23329;DHT22;11836;51.050;3.716;2023-03-01T08:06:15;13.70;89.20
23329;DHT22;11836;51.050;3.716;2023-03-01T08:08:41;13.80;89.30
23329;DHT22;11836;51.050;3.716;2023-03-01T08:11:09;13.80;89.50
23329;DHT22;11836;51.050;3.716;2023-03-01T08:13:35;13.90;89.70
23329;DHT22;11836;51.050;3.716;2023-03-01T08:16:07;14.00;88.90
23329;DHT22;11836;51.050;3.716;2023-03-01T08:18:33;14.00;89.30
23329;DHT22;11836;51.050;3.716;2023-03-01T08:21:07;14.00;89.20
23329;DHT22;11836;51.050;3.716;2023-03-01T08:23:33;14.00;89.80
23329;DHT22;11836;51.050;3.716;2023-03-01T08:26:14;14.00;90.30
23329;DHT22;11836;51.050;3.716;2023-03-01T08:28:41;14.00;90.40
23329;DHT22;11836;51.050;3.716;2023-03-01T08:33:43;14.00;89.60
23329;DHT22;11836;51.050;3.716;2023-03-01T08:36:09;14.00;89.80
23329;DHT22;11836;51.050;3.716;2023-03-01T08:38:35;14.00;89.40
23329;DHT22;11836;51.050;3.716;2023-03-01T08:41:02;14.00;89.70
23329;DHT22;11836;51.050;3.716;2023-03-01T08:43:28;14.00;90.10
23329;DHT22;11836;51.050;3.716;2023-03-01T08:45:54;14.00;90.30
23329;DHT22;11836;51.050;3.716;2023-03-01T08:48:20;14.00;90.60
23329;DHT22;11836;51.050;3.716;2023-03-01T08:50:45;14.00;90.10
23329;DHT22;11836;51.050;3.716;2023-03-01T08:53:11;14.10;90.50
23329;DHT22;11836;51.050;3.716;2023-03-01T08:55:37;14.10;90.40
23329;DHT22;11836;51.050;3.716;2023-03-01T08:58:02;14.10;90.20
23329;DHT22;11836;51.050;3.716;2023-03-01T09:00:28;14.10;90.60
23329;DHT22;11836;51.050;3.716;2023-03-01T09:02:54;14.10;90.60
23329;DHT22;11836;51.050;3.716;2023-03-01T09:05:19;14.20;90.40
23329;DHT22;11836;51.050;3.716;2023-03-01T09:07:45;14.10;90.40
23329;DHT22;11836;51.050;3.716;2023-03-01T09:10:11;14.20;90.40
23329;DHT22;11836;51.050;3.716;2023-03-01T09:12:36;14.20;90.80
23329;DHT22;11836;51.050;3.716;2023-03-01T09:15:02;14.20;90.50
23329;DHT22;11836;51.050;3.716;2023-03-01T09:17:28;14.20;90.90
23329;DHT22;11836;51.050;3.716;2023-03-01T09:19:54;14.30;91.10
23329;DHT22;11836;51.050;3.716;2023-03-01T09:22:19;14.30;90.60
23329;DHT22;11836;51.050;3.716;2023-03-01T09:24:45;14.30;90.40
23329;DHT22;11836;51.050;3.716;2023-03-01T09:27:11;14.30;90.90
23329;DHT22;11836;51.050;3.716;2023-03-01T09:29:39;14.30;90.50
23329;DHT22;11836;51.050;3.716;2023-03-01T09:32:05;14.30;90.40
23329;DHT22;11836;51.050;3.716;2023-03-01T09:34:31;14.30;90.30
23329;DHT22;11836;51.050;3.716;2023-03-01T09:36:57;14.40;90.40
23329;DHT22;11836;51.050;3.716;2023-03-01T09:39:23;14.40;90.90
23329;DHT22;11836;51.050;3.716;2023-03-01T09:41:59;14.40;90.40
23329;DHT22;11836;51.050;3.716;2023-03-01T09:47:29;14.40;90.80
23329;DHT22;11836;51.050;3.716;2023-03-01T09:50:18;14.50;90.90
23329;DHT22;11836;51.050;3.716;2023-03-01T09:53:05;14.40;91.00
23329;DHT22;11836;51.050;3.716;2023-03-01T09:55:45;14.50;90.60
23329;DHT22;11836;51.050;3.716;2023-03-01T10:06:30;14.50;91.10
23329;DHT22;11836;51.050;3.716;2023-03-01T10:09:11;14.50;90.90
23329;DHT22;11836;51.050;3.716;2023-03-01T10:11:43;14.50;90.80
23329;DHT22;11836;51.050;3.716;2023-03-01T10:17:33;14.50;90.90
23329;DHT22;11836;51.050;3.716;2023-03-01T10:22:46;14.50;90.60
23329;DHT22;11836;51.050;3.716;2023-03-01T10:25:20;14.50;90.70
23329;DHT22;11836;51.050;3.716;2023-03-01T10:27:54;14.50;90.60
23329;DHT22;11836;51.050;3.716;2023-03-01T10:30:41;13.90;90.60
23329;DHT22;11836;51.050;3.716;2023-03-01T10:33:24;14.50;90.10
23329;DHT22;11836;51.050;3.716;2023-03-01T10:35:50;14.50;90.10
23329;DHT22;11836;51.050;3.716;2023-03-01T10:38:17;14.50;90.20
23329;DHT22;11836;51.050;3.716;2023-03-01T10:40:57;14.50;89.90
23329;DHT22;11836;51.050;3.716;2023-03-01T10:43:32;14.40;89.60
23329;DHT22;11836;51.050;3.716;2023-03-01T10:49:15;14.40;90.30
23329;DHT22;11836;51.050;3.716;2023-03-01T10:51:43;14.30;90.50
23329;DHT22;11836;51.050;3.716;2023-03-01T10:54:30;14.30;90.40
23329;DHT22;11836;51.050;3.716;2023-03-01T10:56:59;14.30;90.30
23329;DHT22;11836;51.050;3.716;2023-03-01T11:05:15;14.30;90.30
23329;DHT22;11836;51.050;3.716;2023-03-01T11:12:49;14.20;90.40
23329;DHT22;11836;51.050;3.716;2023-03-01T11:15:28;14.10;90.00
23329;DHT22;11836;51.050;3.716;2023-03-01T11:17:56;14.20;89.30
23329;DHT22;11836;51.050;3.716;2023-03-01T11:20:35;14.20;90.10
23329;DHT22;11836;51.050;3.716;2023-03-01T11:23:13;14.10;90.20
23329;DHT22;11836;51.050;3.716;2023-03-01T11:25:47;14.10;90.00
23329;DHT22;11836;51.050;3.716;2023-03-01T11:28:17;14.10;88.70
23329;DHT22;11836;51.050;3.716;2023-03-01T11:31:00;14.10;88.70
23329;DHT22;11836;51.050;3.716;2023-03-01T11:33:44;14.20;89.00
23329;DHT22;11836;51.050;3.716;2023-03-01T11:38:53;14.20;88.70
23329;DHT22;11836;51.050;3.716;2023-03-01T11:41:32;14.20;88.90
23329;DHT22;11836;51.050;3.716;2023-03-01T11:44:02;14.20;89.10
23329;DHT22;11836;51.050;3.716;2023-03-01T12:02:56;14.40;89.50
23329;DHT22;11836;51.050;3.716;2023-03-01T12:08:35;14.40;89.40
23329;DHT22;11836;51.050;3.716;2023-03-01T12:11:32;14.50;89.00
23329;DHT22;11836;51.050;3.716;2023-03-01T12:24:04;14.40;90.00
23329;DHT22;11836;51.050;3.716;2023-03-01T12:28:50;14.40;90.00
23329;DHT22;11836;51.050;3.716;2023-03-01T12:31:29;14.40;90.20
23329;DHT22;11836;51.050;3.716;2023-03-01T12:34:44;14.40;90.00
23329;DHT22;11836;51.050;3.716;2023-03-01T12:43:08;14.40;90.20
23329;DHT22;11836;51.050;3.716;2023-03-01T12:45:49;14.40;89.50
23329;DHT22;11836;51.050;3.716;2023-03-01T12:48:23;14.40;90.00
23329;DHT22;11836;51.050;3.716;2023-03-01T12:50:56;14.30;89.50
23329;DHT22;11836;51.050;3.716;2023-03-01T12:53:43;14.30;89.40
23329;DHT22;11836;51.050;3.716;2023-03-01T12:56:17;14.40;89.60
23329;DHT22;11836;51.050;3.716;2023-03-01T12:59:18;14.40;89.60
23329;DHT22;11836;51.050;3.716;2023-03-01T13:01:48;14.30;88.90
23329;DHT22;11836;51.050;3.716;2023-03-01T13:14:55;14.30;90.00
23329;DHT22;11836;51.050;3.716;2023-03-01T13:17:33;14.30;89.80
23329;DHT22;11836;51.050;3.716;2023-03-01T13:20:13;14.20;89.40
23329;DHT22;11836;51.050;3.716;2023-03-01T13:22:38;14.20;89.70
23329;DHT22;11836;51.050;3.716;2023-03-01T13:25:25;14.20;89.20
23329;DHT22;11836;51.050;3.716;2023-03-01T13:27:51;14.20;89.30
23329;DHT22;11836;51.050;3.716;2023-03-01T13:35:53;14.20;90.20
23329;DHT22;11836;51.050;3.716;2023-03-01T13:38:46;14.20;89.90
23329;DHT22;11836;51.050;3.716;2023-03-01T13:41:14;14.20;90.10
23329;DHT22;11836;51.050;3.716;2023-03-01T13:43:44;14.20;89.80
23329;DHT22;11836;51.050;3.716;2023-03-01T13:46:21;14.20;90.20
23329;DHT22;11836;51.050;3.716;2023-03-01T13:48:51;14.20;90.00
23329;DHT22;11836;51.050;3.716;2023-03-01T13:51:27;14.20;89.60
23329;DHT22;11836;51.050;3.716;2023-03-01T13:53:55;14.20;89.80
23329;DHT22;11836;51.050;3.716;2023-03-01T13:56:28;14.20;90.00
23329;DHT22;11836;51.050;3.716;2023-03-01T13:59:02;14.20;90.10
23329;DHT22;11836;51.050;3.716;2023-03-01T14:01:31;14.20;90.50
23329;DHT22;11836;51.050;3.716;2023-03-01T14:03:58;14.20;90.30
23329;DHT22;11836;51.050;3.716;2023-03-01T14:06:29;14.20;90.10
23329;DHT22;11836;51.050;3.716;2023-03-01T14:09:10;14.20;90.00
23329;DHT22;11836;51.050;3.716;2023-03-01T14:17:37;14.30;90.00
23329;DHT22;11836;51.050;3.716;2023-03-01T14:22:40;14.30;89.80
23329;DHT22;11836;51.050;3.716;2023-03-01T14:25:24;14.30;90.10
23329;DHT22;11836;51.050;3.716;2023-03-01T14:28:13;14.30;90.20
23329;DHT22;11836;51.050;3.716;2023-03-01T14:30:49;14.30;89.90
23329;DHT22;11836;51.050;3.716;2023-03-01T14:33:33;14.30;89.50
23329;DHT22;11836;51.050;3.716;2023-03-01T14:36:02;14.30;89.20
23329;DHT22;11836;51.050;3.716;2023-03-01T14:38:34;14.30;89.30
23329;DHT22;11836;51.050;3.716;2023-03-01T14:41:14;14.20;89.90
23329;DHT22;11836;51.050;3.716;2023-03-01T14:43:53;14.30;89.60
23329;DHT22;11836;51.050;3.716;2023-03-01T14:46:29;14.20;90.00
23329;DHT22;11836;51.050;3.716;2023-03-01T14:49:26;14.30;88.50
23329;DHT22;11836;51.050;3.716;2023-03-01T14:52:06;14.20;89.70
23329;DHT22;11836;51.050;3.716;2023-03-01T14:54:44;14.20;89.50
23329;DHT22;11836;51.050;3.716;2023-03-01T14:57:22;14.20;90.10
23329;DHT22;11836;51.050;3.716;2023-03-01T14:59:49;14.20;90.00
23329;DHT22;11836;51.050;3.716;2023-03-01T15:02:18;14.20;90.20
23329;DHT22;11836;51.050;3.716;2023-03-01T15:04:53;14.20;90.20
23329;DHT22;11836;51.050;3.716;2023-03-01T15:07:22;14.30;90.00
23329;DHT22;11836;51.050;3.716;2023-03-01T15:09:50;14.20;90.20
23329;DHT22;11836;51.050;3.716;2023-03-01T15:14:55;14.30;90.00
23329;DHT22;11836;51.050;3.716;2023-03-01T15:17:35;14.30;89.80
23329;DHT22;11836;51.050;3.716;2023-03-01T15:20:04;14.30;89.30
23329;DHT22;11836;51.050;3.716;2023-03-01T15:22:31;14.30;89.80
23329;DHT22;11836;51.050;3.716;2023-03-01T15:24:57;14.30;89.90
23329;DHT22;11836;51.050;3.716;2023-03-01T15:27:25;14.30;90.00
23329;DHT22;11836;51.050;3.716;2023-03-01T15:29:59;14.30;90.00
23329;DHT22;11836;51.050;3.716;2023-03-01T15:32:36;14.20;90.20
23329;DHT22;11836;51.050;3.716;2023-03-01T15:35:39;14.30;89.90
23329;DHT22;11836;51.050;3.716;2023-03-01T15:38:33;14.30;90.20
23329;DHT22;11836;51.050;3.716;2023-03-01T15:41:03;14.30;90.50
23329;DHT22;11836;51.050;3.716;2023-03-01T15:43:42;14.30;90.10
23329;DHT22;11836;51.050;3.716;2023-03-01T15:46:44;14.20;89.90
23329;DHT22;11836;51.050;3.716;2023-03-01T15:51:52;14.20;90.10
23329;DHT22;11836;51.050;3.716;2023-03-01T15:54:21;14.20;89.90
23329;DHT22;11836;51.050;3.716;2023-03-01T15:56:47;14.20;90.00
23329;DHT22;11836;51.050;3.716;2023-03-01T15:59:13;14.20;90.00
23329;DHT22;11836;51.050;3.716;2023-03-01T16:01:40;14.20;90.00
23329;DHT22;11836;51.050;3.716;2023-03-01T16:04:06;14.20;89.80
23329;DHT22;11836;51.050;3.716;2023-03-01T16:06:32;14.20;90.10
23329;DHT22;11836;51.050;3.716;2023-03-01T16:08:57;14.20;90.00
23329;DHT22;11836;51.050;3.716;2023-03-01T16:11:23;14.10;89.60
23329;DHT22;11836;51.050;3.716;2023-03-01T16:13:49;14.10;89.80
23329;DHT22;11836;51.050;3.716;2023-03-01T16:16:16;14.10;89.60
23329;DHT22;11836;51.050;3.716;2023-03-01T16:18:43;14.10;90.00
23329;DHT22;11836;51.050;3.716;2023-03-01T16:21:14;14.10;90.40
23329;DHT22;11836;51.050;3.716;2023-03-01T16:23:42;14.10;90.20
23329;DHT22;11836;51.050;3.716;2023-03-01T16:26:11;14.10;89.90
23329;DHT22;11836;51.050;3.716;2023-03-01T16:28:39;14.10;90.20
23329;DHT22;11836;51.050;3.716;2023-03-01T16:31:05;14.00;90.20
23329;DHT22;11836;51.050;3.716;2023-03-01T16:33:31;14.00;90.20
23329;DHT22;11836;51.050;3.716;2023-03-01T16:35:57;14.00;90.50
23329;DHT22;11836;51.050;3.716;2023-03-01T16:38:25;14.00;90.10
23329;DHT22;11836;51.050;3.716;2023-03-01T16:40:51;14.00;90.10
23329;DHT22;11836;51.050;3.716;2023-03-01T16:43:17;14.00;90.00
23329;DHT22;11836;51.050;3.716;2023-03-01T16:45:43;14.00;90.00
23329;DHT22;11836;51.050;3.716;2023-03-01T16:48:10;14.10;90.20
23329;DHT22;11836;51.050;3.716;2023-03-01T16:50:36;14.10;89.90
23329;DHT22;11836;51.050;3.716;2023-03-01T16:53:02;14.10;89.90
23329;DHT22;11836;51.050;3.716;2023-03-01T16:55:28;14.10;90.00
23329;DHT22;11836;51.050;3.716;2023-03-01T16:57:54;14.20;90.00
23329;DHT22;11836;51.050;3.716;2023-03-01T17:00:22;14.20;89.80
23329;DHT22;11836;51.050;3.716;2023-03-01T17:02:48;14.20;89.70
23329;DHT22;11836;51.050;3.716;2023-03-01T17:05:14;14.20;89.30
23329;DHT22;11836;51.050;3.716;2023-03-01T17:07:40;14.30;90.00
23329;DHT22;11836;51.050;3.716;2023-03-01T17:10:09;14.30;90.10
23329;DHT22;11836;51.050;3.716;2023-03-01T17:12:37;14.30;89.70
23329;DHT22;11836;51.050;3.716;2023-03-01T17:15:04;14.30;89.20
23329;DHT22;11836;51.050;3.716;2023-03-01T17:17:30;14.30;89.80
23329;DHT22;11836;51.050;3.716;2023-03-01T17:19:56;14.40;89.50
23329;DHT22;11836;51.050;3.716;2023-03-01T17:22:21;14.40;89.80
23329;DHT22;11836;51.050;3.716;2023-03-01T17:24:47;14.40;89.20
23329;DHT22;11836;51.050;3.716;2023-03-01T17:27:13;14.40;89.40
23329;DHT22;11836;51.050;3.716;2023-03-01T17:29:40;14.50;89.50
23329;DHT22;11836;51.050;3.716;2023-03-01T17:32:07;14.50;89.80
23329;DHT22;11836;51.050;3.716;2023-03-01T17:34:33;14.50;89.40
23329;DHT22;11836;51.050;3.716;2023-03-01T17:36:59;14.60;89.00
23329;DHT22;11836;51.050;3.716;2023-03-01T17:39:25;14.50;89.30